Time;durP1;ratioP1;P1;durP2;ratioP2;P2;SDS_P1;SDS_P2;PMS_P1;PMS_P2;Temp;Humidity;BMP_temperature;BMP_pressure;BME280_temperature;BME280_humidity;BME280_pressure;Samples;Min_cycle;Max_cycle;Signal;HPM_P1;HPM_P2
2022/01/28 00:04:51;;;;;;;0.00;0.00;;;4.40;99.90;;;;;;5061859;28;20099;-63
2022/01/28 00:07:17;;;;;;;0.00;0.00;;;4.40;99.90;;;;;;5060806;28;20510;-62
2022/01/28 00:09:42;;;;;;;0.00;0.00;;;4.30;99.90;;;;;;5062546;28;20045;-62
2022/01/28 00:12:10;;;;;;;0.00;0.00;;;4.40;99.90;;;;;;5062044;28;20388;-62
2022/01/28 00:20:32;;;;;;;;;;;4.30;99.90;;;;;;5061495;28;20052;-62
2022/01/28 00:38:57;;;;;;;0.00;0.00;;;4.40;99.90;;;;;;5062498;28;20053;-63
2022/01/28 00:41:22;;;;;;;0.00;0.00;;;4.40;99.90;;;;;;5061481;28;20036;-62
2022/01/28 00:43:48;;;;;;;0.00;0.00;;;4.40;99.90;;;;;;5061151;28;20118;-62
2022/01/28 00:46:14;;;;;;;0.00;0.00;;;5.00;99.90;;;;;;5064822;28;20103;-62
2022/01/28 00:48:40;;;;;;;0.00;0.00;;;4.30;99.90;;;;;;5064212;28;20052;-62
2022/01/28 00:51:05;;;;;;;0.40;0.40;;;4.40;99.90;;;;;;5065833;28;20032;-63
2022/01/28 00:53:31;;;;;;;0.00;0.00;;;4.30;99.90;;;;;;5065098;28;20101;-64
2022/01/28 00:55:57;;;;;;;0.00;0.00;;;5.20;99.90;;;;;;5066024;28;20033;-62
2022/01/28 00:58:24;;;;;;;0.00;0.00;;;4.20;99.90;;;;;;5065472;28;20080;-62
2022/01/28 01:00:50;;;;;;;0.00;0.00;;;4.20;99.90;;;;;;5065749;28;20426;-63
2022/01/28 01:03:16;;;;;;;0.00;0.00;;;4.20;99.90;;;;;;5065221;28;20139;-62
2022/01/28 01:05:42;;;;;;;0.00;0.00;;;4.20;99.90;;;;;;5065207;28;20694;-63
2022/01/28 01:08:08;;;;;;;0.00;0.00;;;4.20;99.90;;;;;;5065424;28;20586;-62
2022/01/28 01:10:35;;;;;;;0.00;0.00;;;4.20;99.90;;;;;;5064633;28;20051;-62
2022/01/28 01:13:01;;;;;;;0.00;0.00;;;4.20;99.90;;;;;;5064273;28;20055;-63
2022/01/28 01:15:33;;;;;;;0.00;0.00;;;4.20;99.90;;;;;;5065540;28;20082;-63
2022/01/28 01:25:44;;;;;;;1.08;0.10;;;4.20;99.90;;;;;;5064941;28;20415;-63
2022/01/28 01:28:14;;;;;;;0.00;0.00;;;4.20;99.90;;;;;;5070491;28;20047;-65
2022/01/28 01:30:42;;;;;;;0.00;0.00;;;4.10;99.90;;;;;;5069291;28;20074;-65
2022/01/28 01:33:09;;;;;;;0.00;0.00;;;4.10;99.90;;;;;;5046843;28;20674;-62
2022/01/28 01:35:35;;;;;;;0.00;0.00;;;4.00;99.90;;;;;;5064590;28;20056;-62
2022/01/28 01:38:02;;;;;;;0.00;0.00;;;3.90;99.90;;;;;;5064817;28;20044;-62
2022/01/28 01:40:34;;;;;;;0.00;0.00;;;3.90;99.90;;;;;;5063991;28;20152;-62
2022/01/28 01:43:19;;;;;;;0.00;0.00;;;3.80;99.90;;;;;;5062193;28;20044;-62
2022/01/28 01:53:56;;;;;;;0.00;0.00;;;3.60;99.90;;;;;;5064074;28;20053;-62
2022/01/28 01:56:22;;;;;;;0.00;0.00;;;3.70;99.90;;;;;;5079787;28;20127;-62
2022/01/28 01:58:48;;;;;;;0.00;0.00;;;3.70;99.90;;;;;;5062061;28;20182;-62
2022/01/28 02:01:13;;;;;;;0.00;0.00;;;3.50;99.90;;;;;;5064215;28;20453;-62
2022/01/28 02:03:39;;;;;;;0.00;0.00;;;3.10;99.90;;;;;;5064388;28;20049;-63
2022/01/28 02:06:05;;;;;;;0.00;0.00;;;3.80;99.90;;;;;;5062239;28;20049;-62
2022/01/28 02:08:32;;;;;;;0.00;0.00;;;3.90;99.90;;;;;;5064376;28;20095;-61
2022/01/28 02:10:59;;;;;;;0.00;0.00;;;3.90;99.90;;;;;;5062057;28;20120;-62
2022/01/28 02:13:26;;;;;;;0.00;0.00;;;4.00;99.90;;;;;;5063775;28;20458;-62
2022/01/28 02:15:53;;;;;;;0.00;0.00;;;4.00;99.90;;;;;;5064227;28;20068;-62
2022/01/28 02:18:23;;;;;;;0.00;0.00;;;4.10;99.90;;;;;;5064770;28;20040;-62
2022/01/28 02:20:51;;;;;;;0.00;0.00;;;4.20;99.90;;;;;;5064218;28;20048;-62
2022/01/28 02:23:19;;;;;;;0.00;0.00;;;4.20;99.90;;;;;;5062840;28;20165;-63
2022/01/28 02:25:45;;;;;;;0.00;0.00;;;4.30;99.90;;;;;;5063833;28;20390;-63
2022/01/28 02:28:15;;;;;;;0.00;0.00;;;4.30;99.90;;;;;;5069196;28;20060;-63
2022/01/28 02:30:41;;;;;;;0.00;0.00;;;4.30;99.90;;;;;;5068062;28;20118;-62
2022/01/28 02:33:16;;;;;;;0.00;0.00;;;4.30;99.90;;;;;;5063514;28;20131;-63
2022/01/28 02:35:43;;;;;;;0.00;0.00;;;4.40;99.90;;;;;;5063677;28;20093;-62
2022/01/28 02:38:14;;;;;;;0.00;0.00;;;4.30;99.90;;;;;;5062155;28;20487;-63
2022/01/28 02:40:45;;;;;;;0.00;0.00;;;4.30;99.90;;;;;;5063401;28;20036;-62
2022/01/28 02:43:26;;;;;;;0.00;0.00;;;4.30;99.90;;;;;;5062790;28;20529;-62
2022/01/28 02:45:55;;;;;;;0.00;0.00;;;4.40;99.90;;;;;;5064269;28;20453;-62
2022/01/28 02:48:22;;;;;;;0.00;0.00;;;4.60;99.90;;;;;;5064193;28;20048;-62
2022/01/28 02:51:05;;;;;;;0.00;0.00;;;4.40;99.90;;;;;;5063407;28;20052;-63
2022/01/28 02:56:17;;;;;;;0.00;0.00;;;4.50;99.90;;;;;;5063333;28;20056;-63
2022/01/28 02:58:45;;;;;;;0.00;0.00;;;3.40;99.90;;;;;;5062672;28;20044;-62
2022/01/28 03:01:13;;;;;;;0.00;0.00;;;4.40;99.90;;;;;;5063397;28;20079;-63
2022/01/28 03:03:40;;;;;;;0.00;0.00;;;4.50;99.90;;;;;;5063440;28;20052;-62
2022/01/28 03:06:06;;;;;;;0.00;0.00;;;4.50;99.90;;;;;;5062455;28;20064;-62
2022/01/28 03:08:31;;;;;;;0.00;0.00;;;4.60;99.90;;;;;;5063105;28;20048;-63
2022/01/28 03:11:26;;;;;;;0.00;0.00;;;4.60;99.90;;;;;;5063227;28;20032;-63
2022/01/28 03:16:25;;;;;;;0.00;0.00;;;4.70;99.90;;;;;;5063836;28;20040;-63
2022/01/28 03:18:57;;;;;;;0.85;0.30;;;4.80;99.90;;;;;;5061720;28;20060;-62
2022/01/28 03:23:53;;;;;;;0.00;0.00;;;4.80;99.90;;;;;;5063190;28;20056;-63
2022/01/28 03:26:19;;;;;;;0.00;0.00;;;4.80;99.90;;;;;;5063586;28;20063;-63
2022/01/28 03:28:44;;;;;;;0.00;0.00;;;4.90;99.90;;;;;;5071308;28;20079;-63
2022/01/28 03:31:10;;;;;;;0.00;0.00;;;4.90;99.90;;;;;;5061708;28;20122;-64
2022/01/28 03:33:36;;;;;;;0.00;0.00;;;4.90;99.90;;;;;;5062496;28;20124;-62
2022/01/28 03:36:06;;;;;;;0.00;0.00;;;4.90;99.90;;;;;;5062651;28;20059;-64
2022/01/28 03:38:32;;;;;;;0.00;0.00;;;4.90;99.90;;;;;;5062412;28;20078;-63
2022/01/28 03:40:58;;;;;;;0.00;0.00;;;4.90;99.90;;;;;;5062823;28;20072;-63
2022/01/28 03:43:23;;;;;;;0.08;0.03;;;4.90;99.90;;;;;;5062572;28;20037;-61
2022/01/28 03:45:49;;;;;;;0.00;0.00;;;4.90;99.90;;;;;;5062855;28;20059;-63
2022/01/28 03:48:15;;;;;;;0.00;0.00;;;4.90;99.90;;;;;;5062926;28;20673;-62
2022/01/28 03:50:41;;;;;;;0.00;0.00;;;4.90;99.90;;;;;;5061491;28;20041;-62
2022/01/28 03:53:07;;;;;;;0.00;0.00;;;4.90;99.90;;;;;;5062752;28;20134;-62
2022/01/28 03:55:34;;;;;;;0.00;0.00;;;4.90;99.90;;;;;;5062245;28;20055;-63
2022/01/28 03:58:00;;;;;;;0.00;0.00;;;4.90;99.90;;;;;;5060498;28;20240;-64
2022/01/28 04:00:29;;;;;;;0.00;0.00;;;5.00;99.90;;;;;;5062729;28;20039;-63
2022/01/28 04:03:07;;;;;;;0.05;0.05;;;5.00;99.90;;;;;;5062523;28;20059;-62
2022/01/28 04:13:28;;;;;;;0.00;0.00;;;5.00;99.90;;;;;;5062140;28;20049;-62
2022/01/28 04:16:28;;;;;;;0.00;0.00;;;5.00;99.90;;;;;;5061119;28;20051;-60
2022/01/28 04:18:40;;;;;;;0.00;0.00;;;5.00;99.90;;;;;;5062098;28;20057;-62
2022/01/28 04:21:05;;;;;;;0.00;0.00;;;4.90;99.90;;;;;;5066287;28;20506;-62
2022/01/28 04:23:31;;;;;;;0.00;0.00;;;4.90;99.90;;;;;;5065821;28;20044;-61
2022/01/28 04:25:56;;;;;;;0.00;0.00;;;4.80;99.90;;;;;;5066202;28;20406;-62
2022/01/28 04:28:22;;;;;;;0.10;0.10;;;4.80;99.90;;;;;;5073828;28;20044;-62
2022/01/28 04:30:48;;;;;;;0.00;0.00;;;4.80;99.90;;;;;;5068297;28;20048;-62
2022/01/28 04:33:13;;;;;;;0.88;0.35;;;4.80;99.90;;;;;;5065795;28;20051;-62
2022/01/28 04:35:39;;;;;;;0.03;0.03;;;4.80;99.90;;;;;;5065631;28;20403;-62
2022/01/28 04:40:45;;;;;;;0.00;0.00;;;4.90;99.90;;;;;;5065863;28;20048;-62
2022/01/28 04:43:24;;;;;;;0.00;0.00;;;4.90;99.90;;;;;;5064988;28;20055;-62
2022/01/28 04:48:25;;;;;;;0.00;0.00;;;5.00;99.90;;;;;;5065644;28;20053;-62
2022/01/28 04:51:20;;;;;;;0.00;0.00;;;5.00;99.90;;;;;;5065895;28;20044;-62
2022/01/28 04:54:00;;;;;;;0.00;0.00;;;5.00;99.90;;;;;;5065201;28;20388;-63
2022/01/28 05:25:42;;;;;;;0.00;0.00;;;4.70;99.90;;;;;;5040383;28;20503;-63
2022/01/28 05:27:55;;;;;;;0.00;0.00;;;4.80;99.90;;;;;;5068155;28;20438;-62
2022/01/28 05:30:21;;;;;;;0.00;0.00;;;4.80;99.90;;;;;;5071445;28;20056;-62
2022/01/28 05:32:46;;;;;;;0.00;0.00;;;4.80;99.90;;;;;;5062893;28;20113;-63
2022/01/28 05:35:12;;;;;;;0.00;0.00;;;4.70;99.90;;;;;;5064873;28;20554;-62
2022/01/28 05:37:37;;;;;;;0.00;0.00;;;4.80;99.90;;;;;;5064916;28;20056;-62
2022/01/28 05:40:04;;;;;;;0.00;0.00;;;4.80;99.90;;;;;;5064660;28;20047;-62
2022/01/28 05:42:29;;;;;;;0.00;0.00;;;4.90;99.90;;;;;;5062706;28;20056;-60
2022/01/28 05:44:55;;;;;;;0.00;0.00;;;4.90;99.90;;;;;;5064355;28;20488;-62
2022/01/28 05:47:23;;;;;;;0.00;0.00;;;4.80;99.90;;;;;;5065431;28;20041;-63
2022/01/28 05:49:50;;;;;;;0.00;0.00;;;4.80;99.90;;;;;;5064583;28;20059;-62
2022/01/28 05:52:15;;;;;;;0.00;0.00;;;4.80;99.90;;;;;;5064658;28;20052;-62
2022/01/28 05:54:41;;;;;;;0.00;0.00;;;4.90;99.90;;;;;;5064289;28;20049;-63
2022/01/28 05:57:06;;;;;;;0.00;0.00;;;4.90;99.90;;;;;;5064066;28;20131;-62
2022/01/28 05:59:32;;;;;;;0.00;0.00;;;4.90;99.90;;;;;;5063834;28;20808;-62
2022/01/28 06:01:58;;;;;;;0.00;0.00;;;4.90;99.90;;;;;;5064551;28;20067;-62
2022/01/28 06:04:23;;;;;;;0.00;0.00;;;4.80;99.90;;;;;;5064697;28;20033;-59
2022/01/28 06:06:49;;;;;;;0.00;0.00;;;4.90;99.90;;;;;;5064502;28;20060;-63
2022/01/28 06:09:15;;;;;;;0.00;0.00;;;4.80;99.90;;;;;;5063885;28;20442;-63
2022/01/28 06:11:43;;;;;;;0.00;0.00;;;4.80;99.90;;;;;;5063315;28;20086;-63
2022/01/28 06:14:09;;;;;;;0.00;0.00;;;4.80;99.90;;;;;;5064003;28;20128;-62
2022/01/28 06:16:34;;;;;;;0.00;0.00;;;4.80;99.90;;;;;;5064172;28;20542;-62
2022/01/28 06:19:01;;;;;;;0.00;0.00;;;4.80;99.90;;;;;;5063838;28;20040;-62
2022/01/28 06:21:27;;;;;;;0.00;0.00;;;4.80;99.90;;;;;;5064358;28;20431;-63
2022/01/28 06:23:52;;;;;;;0.00;0.00;;;4.80;99.90;;;;;;5064296;28;20040;-63
2022/01/28 06:26:18;;;;;;;0.00;0.00;;;4.80;99.90;;;;;;5063136;28;20055;-62
2022/01/28 06:28:44;;;;;;;0.00;0.00;;;4.80;99.90;;;;;;5074468;28;20052;-62
2022/01/28 06:31:10;;;;;;;0.00;0.00;;;4.80;99.90;;;;;;5064031;28;20051;-64
2022/01/28 06:33:36;;;;;;;0.00;0.00;;;4.70;99.90;;;;;;5063614;28;20041;-62
2022/01/28 06:36:03;;;;;;;0.00;0.00;;;4.70;99.90;;;;;;5063487;28;20399;-62
2022/01/28 06:38:29;;;;;;;0.00;0.00;;;4.70;99.90;;;;;;5062152;28;20055;-62
2022/01/28 06:40:55;;;;;;;0.00;0.00;;;4.80;99.90;;;;;;5063124;28;20431;-62
2022/01/28 06:43:21;;;;;;;0.00;0.00;;;4.80;99.90;;;;;;5063184;28;20036;-62
2022/01/28 06:45:47;;;;;;;0.00;0.00;;;4.80;99.90;;;;;;5061996;28;20051;-62
2022/01/28 06:48:13;;;;;;;0.00;0.00;;;4.80;99.90;;;;;;5063153;28;20668;-63
2022/01/28 06:50:44;;;;;;;0.00;0.00;;;4.90;99.90;;;;;;5061954;28;20045;-63
2022/01/28 06:53:13;;;;;;;0.00;0.00;;;4.80;99.90;;;;;;5063493;28;20445;-64
2022/01/28 06:55:39;;;;;;;0.00;0.00;;;4.80;99.90;;;;;;5063332;28;20036;-62
2022/01/28 06:58:05;;;;;;;0.00;0.00;;;4.30;99.90;;;;;;5062518;28;20079;-62
2022/01/28 07:00:37;;;;;;;0.00;0.00;;;4.80;99.90;;;;;;5063463;28;20052;-62
2022/01/28 07:03:14;;;;;;;0.00;0.00;;;4.80;99.90;;;;;;5063323;28;20064;-63
2022/01/28 07:05:40;;;;;;;0.95;0.70;;;4.70;99.90;;;;;;5063118;28;20091;-62
2022/01/28 07:08:07;;;;;;;0.00;0.00;;;4.80;99.90;;;;;;5063041;28;20106;-62
2022/01/28 07:10:33;;;;;;;0.00;0.00;;;4.70;99.90;;;;;;5063310;28;20045;-61
2022/01/28 07:12:59;;;;;;;0.00;0.00;;;4.70;99.90;;;;;;5060465;28;20047;-62
2022/01/28 07:15:26;;;;;;;0.00;0.00;;;4.70;99.90;;;;;;5062059;28;20495;-62
2022/01/28 07:17:52;;;;;;;0.00;0.00;;;4.70;99.90;;;;;;5063319;28;20044;-61
2022/01/28 07:20:18;;;;;;;0.00;0.00;;;4.70;99.90;;;;;;5063000;28;20068;-63
2022/01/28 07:22:44;;;;;;;0.00;0.00;;;4.70;99.90;;;;;;5062301;28;20153;-62
2022/01/28 07:25:10;;;;;;;0.00;0.00;;;4.70;99.90;;;;;;5063255;28;20364;-62
2022/01/28 07:27:35;;;;;;;0.00;0.00;;;4.70;99.90;;;;;;5064532;28;20047;-63
2022/01/28 07:30:01;;;;;;;0.00;0.00;;;4.60;99.90;;;;;;5071731;28;20032;-62
2022/01/28 07:32:27;;;;;;;0.00;0.00;;;;;;;;;;5062282;28;20048;-62
2022/01/28 07:34:53;;;;;;;0.00;0.00;;;4.60;99.90;;;;;;5063075;28;20045;-63
2022/01/28 07:37:18;;;;;;;0.00;0.00;;;4.50;99.90;;;;;;5063006;28;20066;-62
2022/01/28 07:39:45;;;;;;;0.00;0.00;;;4.30;99.90;;;;;;5062554;28;20033;-62
2022/01/28 07:42:11;;;;;;;0.00;0.00;;;4.50;99.90;;;;;;5061570;28;20546;-63
2022/01/28 07:44:36;;;;;;;0.00;0.00;;;4.40;99.90;;;;;;5062658;28;20053;-62
2022/01/28 07:47:03;;;;;;;0.00;0.00;;;4.40;99.90;;;;;;5062870;28;20037;-62
2022/01/28 07:49:29;;;;;;;0.00;0.00;;;4.40;99.90;;;;;;5062618;28;20067;-62
2022/01/28 07:51:55;;;;;;;0.00;0.00;;;4.40;99.90;;;;;;5062268;28;20048;-62
2022/01/28 07:54:20;;;;;;;0.00;0.00;;;4.40;99.90;;;;;;5063007;28;20487;-63
2022/01/28 07:56:48;;;;;;;0.00;0.00;;;4.50;99.90;;;;;;5066489;28;20089;-65
2022/01/28 07:59:13;;;;;;;0.00;0.00;;;4.50;99.90;;;;;;5066197;28;20316;-62
2022/01/28 08:01:39;;;;;;;0.00;0.00;;;4.50;99.90;;;;;;5065493;28;20131;-62
2022/01/28 08:04:04;;;;;;;0.00;0.00;;;5.80;99.90;;;;;;5066534;28;20189;-62
2022/01/28 08:06:30;;;;;;;0.00;0.00;;;4.40;99.90;;;;;;5066550;28;20571;-61
2022/01/28 08:08:58;;;;;;;0.00;0.00;;;4.30;99.90;;;;;;5066226;28;20049;-62
2022/01/28 08:11:24;;;;;;;0.00;0.00;;;4.30;99.90;;;;;;5064864;28;20106;-63
2022/01/28 08:13:50;;;;;;;0.00;0.00;;;4.20;99.90;;;;;;5066657;28;20445;-64
2022/01/28 08:16:15;;;;;;;0.00;0.00;;;4.20;99.90;;;;;;5065090;28;20449;-62
2022/01/28 08:18:41;;;;;;;0.00;0.00;;;4.10;99.90;;;;;;5065805;28;20056;-62
2022/01/28 08:21:06;;;;;;;0.00;0.00;;;4.10;99.90;;;;;;5066317;28;20530;-62
2022/01/28 08:23:32;;;;;;;0.00;0.00;;;4.10;99.90;;;;;;5066279;28;20453;-62
2022/01/28 08:25:58;;;;;;;0.00;0.00;;;4.10;99.90;;;;;;5065755;28;20115;-62
2022/01/28 08:28:24;;;;;;;0.00;0.00;;;4.20;99.90;;;;;;5074265;28;20558;-63
2022/01/28 08:30:50;;;;;;;0.00;0.00;;;4.20;99.90;;;;;;5069676;28;20041;-64
2022/01/28 08:33:15;;;;;;;0.00;0.00;;;4.20;99.90;;;;;;5066054;28;20048;-64
2022/01/28 08:35:41;;;;;;;0.00;0.00;;;4.30;99.90;;;;;;5083027;28;20055;-63
2022/01/28 08:38:17;;;;;;;0.00;0.00;;;4.40;99.90;;;;;;5086064;28;20047;-64
2022/01/28 08:40:43;;;;;;;0.00;0.00;;;4.40;99.90;;;;;;5086260;28;20033;-63
2022/01/28 08:43:09;;;;;;;0.00;0.00;;;5.90;99.90;;;;;;5085324;28;20040;-64
2022/01/28 08:45:35;;;;;;;0.00;0.00;;;4.60;99.90;;;;;;5085859;28;20043;-63
2022/01/28 08:48:00;;;;;;;0.00;0.00;;;4.70;99.90;;;;;;5085960;28;20170;-64
2022/01/28 08:50:26;;;;;;;0.00;0.00;;;4.90;99.90;;;;;;5086136;28;20051;-63
2022/01/28 08:52:52;;;;;;;0.00;0.00;;;5.00;99.90;;;;;;5086146;28;20044;-63
2022/01/28 08:55:18;;;;;;;0.00;0.00;;;5.20;99.90;;;;;;5085575;28;20051;-64
2022/01/28 08:57:44;;;;;;;0.00;0.00;;;5.30;99.90;;;;;;5085114;28;20546;-63
2022/01/28 09:00:17;;;;;;;0.00;0.00;;;5.40;99.90;;;;;;5085788;28;20036;-64
2022/01/28 09:02:42;;;;;;;0.00;0.00;;;5.40;99.90;;;;;;5085640;28;20052;-63
2022/01/28 09:05:08;;;;;;;0.00;0.00;;;5.40;99.90;;;;;;5083665;28;20509;-64
2022/01/28 09:07:34;;;;;;;0.00;0.00;;;5.40;99.90;;;;;;5085660;28;20519;-63
2022/01/28 09:10:06;;;;;;;0.00;0.00;;;5.40;99.90;;;;;;5085532;28;20059;-63
2022/01/28 09:12:39;;;;;;;0.00;0.00;;;5.50;99.90;;;;;;5084876;28;20044;-64
2022/01/28 09:15:07;;;;;;;0.00;0.00;;;5.50;99.90;;;;;;5084207;28;20074;-63
2022/01/28 09:17:33;;;;;;;0.00;0.00;;;5.50;99.90;;;;;;5085565;28;20040;-63
2022/01/28 09:19:59;;;;;;;0.00;0.00;;;5.40;99.90;;;;;;5085864;28;20056;-65
2022/01/28 09:22:25;;;;;;;0.00;0.00;;;5.70;99.90;;;;;;5083580;28;20040;-63
2022/01/28 09:24:52;;;;;;;0.00;0.00;;;5.50;99.90;;;;;;5085897;28;20044;-64
2022/01/28 09:27:18;;;;;;;0.00;0.00;;;5.70;99.90;;;;;;5081875;28;20123;-64
2022/01/28 09:29:43;;;;;;;0.00;0.00;;;6.00;99.90;;;;;;5073881;28;20048;-63
2022/01/28 09:32:09;;;;;;;0.00;0.00;;;6.10;99.90;;;;;;5064540;28;20045;-63
2022/01/28 09:34:35;;;;;;;0.00;0.00;;;6.10;99.90;;;;;;5064719;28;20495;-63
2022/01/28 09:37:00;;;;;;;0.00;0.00;;;6.00;99.90;;;;;;5065141;28;20688;-64
2022/01/28 09:39:29;;;;;;;0.00;0.00;;;6.00;99.90;;;;;;5063622;28;20044;-64
2022/01/28 09:42:00;;;;;;;0.00;0.00;;;6.00;99.90;;;;;;5064074;28;20464;-64
2022/01/28 09:44:29;;;;;;;0.00;0.00;;;5.80;99.90;;;;;;5064981;28;20128;-64
2022/01/28 09:46:57;;;;;;;0.00;0.00;;;5.90;99.90;;;;;;5064718;28;20084;-64
2022/01/28 09:49:22;;;;;;;0.00;0.00;;;5.90;99.90;;;;;;5063501;28;20032;-64
2022/01/28 09:51:48;;;;;;;0.00;0.00;;;5.90;99.90;;;;;;5046247;28;20457;-64
2022/01/28 09:54:15;;;;;;;0.00;0.00;;;5.90;99.90;;;;;;5064431;28;20056;-64
2022/01/28 09:56:41;;;;;;;0.00;0.00;;;5.90;99.90;;;;;;5062575;28;20044;-64
2022/01/28 09:59:06;;;;;;;0.00;0.00;;;6.10;99.90;;;;;;5064035;28;20120;-63
2022/01/28 10:01:32;;;;;;;0.00;0.00;;;6.50;99.90;;;;;;5064476;28;20225;-63
2022/01/28 10:04:06;;;;;;;0.00;0.00;;;6.60;99.90;;;;;;5064395;28;20082;-64
2022/01/28 10:06:35;;;;;;;0.00;0.00;;;6.50;99.90;;;;;;5063881;28;20078;-64
2022/01/28 10:09:11;;;;;;;0.00;0.00;;;6.40;99.90;;;;;;5062918;28;20040;-64
2022/01/28 10:11:39;;;;;;;0.00;0.00;;;7.00;99.90;;;;;;5063137;28;20048;-62
2022/01/28 10:14:13;;;;;;;2.00;0.90;;;7.10;99.90;;;;;;5063808;28;20045;-63
2022/01/28 10:16:39;;;;;;;0.00;0.00;;;7.90;99.90;;;;;;5063789;28;20052;-63
2022/01/28 10:19:09;;;;;;;0.00;0.00;;;8.20;99.90;;;;;;5064031;28;20048;-64
2022/01/28 10:21:40;;;;;;;0.00;0.00;;;8.40;99.90;;;;;;5062769;28;20040;-64
2022/01/28 10:24:20;;;;;;;0.00;0.00;;;8.70;99.90;;;;;;5063689;28;20040;-56
2022/01/28 10:26:52;;;;;;;0.00;0.00;;;8.80;99.90;;;;;;5075891;28;20092;-63
2022/01/28 10:29:22;;;;;;;0.00;0.00;;;8.30;99.90;;;;;;5075771;28;20086;-63
2022/01/28 10:31:59;;;;;;;0.00;0.00;;;8.00;99.90;;;;;;5083559;28;20039;-63
2022/01/28 10:34:39;;;;;;;0.00;0.00;;;7.60;99.90;;;;;;5083603;28;20048;-64
2022/01/28 10:37:13;;;;;;;0.00;0.00;;;7.40;99.90;;;;;;5083604;28;20318;-64
2022/01/28 10:39:45;;;;;;;0.00;0.00;;;7.20;99.90;;;;;;5083607;28;20036;-64
2022/01/28 10:42:13;;;;;;;0.00;0.00;;;7.10;99.90;;;;;;5082153;28;20118;-65
2022/01/28 10:44:57;;;;;;;0.00;0.00;;;7.30;99.90;;;;;;5069504;28;20098;-63
2022/01/28 10:47:42;;;;;;;0.00;0.00;;;7.90;99.90;;;;;;5080491;28;20044;-63
2022/01/28 10:50:18;;;;;;;0.00;0.00;;;8.60;99.90;;;;;;5082243;28;20051;-64
2022/01/28 10:52:45;;;;;;;0.00;0.00;;;9.30;99.90;;;;;;5083391;28;20127;-63
2022/01/28 10:55:18;;;;;;;0.00;0.00;;;10.00;99.90;;;;;;5083057;28;20040;-64
2022/01/28 10:57:59;;;;;;;0.00;0.00;;;10.40;99.90;;;;;;5081225;28;20055;-64
2022/01/28 11:00:33;;;;;;;0.00;0.00;;;11.00;99.90;;;;;;5083020;28;20043;-63
2022/01/28 11:03:02;;;;;;;0.00;0.00;;;11.00;99.90;;;;;;5082671;28;20131;-63
2022/01/28 11:05:29;;;;;;;0.00;0.00;;;10.50;99.90;;;;;;5082914;28;20060;-64
2022/01/28 11:07:57;;;;;;;0.00;0.00;;;10.00;99.90;;;;;;5083102;28;20110;-64
2022/01/28 11:10:23;;;;;;;0.00;0.00;;;9.20;99.90;;;;;;5070683;28;20081;-62
2022/01/28 11:12:51;;;;;;;0.00;0.00;;;9.50;99.90;;;;;;5062698;28;20048;-63
2022/01/28 11:15:17;;;;;;;0.00;0.00;;;9.40;99.90;;;;;;5062719;28;20051;-63
2022/01/28 11:17:43;;;;;;;0.00;0.00;;;9.90;99.90;;;;;;5068022;28;20416;-63
2022/01/28 11:20:12;;;;;;;0.00;0.00;;;9.70;99.90;;;;;;5073528;28;20118;-62
2022/01/28 11:23:13;;;;;;;0.00;0.00;;;9.70;99.90;;;;;;5082950;28;20068;-63
2022/01/28 11:25:43;;;;;;;0.00;0.00;;;9.50;99.90;;;;;;5080174;28;20051;-66
2022/01/28 11:28:13;;;;;;;0.00;0.00;;;9.50;99.90;;;;;;5076141;28;20447;-63
2022/01/28 11:30:50;;;;;;;0.00;0.00;;;9.30;99.90;;;;;;5067104;28;20060;-62
2022/01/28 11:33:17;;;;;;;0.00;0.00;;;8.90;99.90;;;;;;5061827;28;20044;-63
2022/01/28 11:35:52;;;;;;;0.00;0.00;;;8.50;99.90;;;;;;5080083;28;20051;-63
2022/01/28 11:38:29;;;;;;;0.00;0.00;;;8.30;99.90;;;;;;5082684;28;20126;-63
2022/01/28 11:41:12;;;;;;;0.00;0.00;;;8.00;99.90;;;;;;5081699;28;20479;-63
2022/01/28 11:43:51;;;;;;;0.00;0.00;;;7.90;99.90;;;;;;5081397;28;20039;-62
2022/01/28 11:46:22;;;;;;;0.00;0.00;;;7.80;99.90;;;;;;5082428;28;20040;-64
2022/01/28 11:49:04;;;;;;;0.00;0.00;;;7.80;99.90;;;;;;5064647;28;20040;-63
2022/01/28 11:51:33;;;;;;;0.00;0.00;;;7.70;99.90;;;;;;5061962;28;20056;-62
2022/01/28 11:54:04;;;;;;;0.00;0.00;;;7.50;99.90;;;;;;5078010;28;20048;-62
2022/01/28 11:56:30;;;;;;;0.00;0.00;;;7.50;99.90;;;;;;5081792;28;20065;-62
2022/01/28 11:59:02;;;;;;;0.00;0.00;;;7.60;99.90;;;;;;5082430;28;20088;-63
2022/01/28 12:01:39;;;;;;;0.00;0.00;;;7.50;99.90;;;;;;5082268;28;20075;-63
2022/01/28 12:04:27;;;;;;;0.00;0.00;;;7.50;99.90;;;;;;5082080;28;20493;-62
2022/01/28 12:06:55;;;;;;;0.00;0.00;;;7.60;99.90;;;;;;5081943;28;20054;-63
2022/01/28 12:09:23;;;;;;;0.00;0.00;;;7.70;99.90;;;;;;5068198;28;20052;-64
2022/01/28 12:11:49;;;;;;;0.00;0.00;;;7.90;99.90;;;;;;5061967;28;20033;-64
2022/01/28 12:14:14;;;;;;;0.10;0.10;;;8.20;99.90;;;;;;5062171;28;20044;-63
2022/01/28 12:16:46;;;;;;;0.00;0.00;;;8.20;99.90;;;;;;5062282;28;20118;-63
2022/01/28 12:19:19;;;;;;;0.00;0.00;;;8.40;99.90;;;;;;5062578;28;20048;-63
2022/01/28 12:22:10;;;;;;;0.00;0.00;;;8.60;99.90;;;;;;5062477;28;20050;-63
2022/01/28 12:24:37;;;;;;;0.00;0.00;;;8.30;99.90;;;;;;5062204;28;20068;-63
2022/01/28 12:27:08;;;;;;;0.00;0.00;;;8.00;99.90;;;;;;5062915;28;20040;-63
2022/01/28 12:29:43;;;;;;;0.00;0.00;;;7.80;99.90;;;;;;5070812;28;20040;-65
2022/01/28 12:32:10;;;;;;;0.00;0.00;;;7.60;99.90;;;;;;5062271;28;20052;-64
2022/01/28 12:34:45;;;;;;;0.00;0.00;;;7.40;99.90;;;;;;5060796;28;20044;-63
2022/01/28 12:37:11;;;;;;;0.00;0.00;;;7.30;99.90;;;;;;5061655;28;20056;-64
2022/01/28 12:39:43;;;;;;;0.00;0.00;;;7.30;99.90;;;;;;5061146;28;20044;-63
2022/01/28 12:44:54;;;;;;;0.00;0.00;;;7.60;99.90;;;;;;5065203;28;20071;-64
2022/01/28 12:47:21;;;;;;;0.00;0.00;;;7.70;99.90;;;;;;5066360;28;20451;-64
2022/01/28 12:49:57;;;;;;;0.00;0.00;;;7.50;99.90;;;;;;5065821;28;20105;-63
2022/01/28 12:52:23;;;;;;;1.55;1.25;;;7.50;99.90;;;;;;5065876;28;20072;-64
2022/01/28 12:54:49;;;;;;;0.00;0.00;;;7.40;99.90;;;;;;5065577;28;20495;-64
2022/01/28 12:57:19;;;;;;;0.00;0.00;;;7.40;99.90;;;;;;5065095;28;20581;-64
2022/01/28 12:59:48;;;;;;;0.00;0.00;;;7.50;99.90;;;;;;5065138;28;20123;-63
2022/01/28 13:02:15;;;;;;;0.00;0.00;;;7.70;99.90;;;;;;5065619;28;20041;-64
2022/01/28 13:10:07;;;;;;;0.00;0.00;;;7.70;99.90;;;;;;5048115;28;20076;-65
2022/01/28 13:12:34;;;;;;;0.00;0.00;;;7.60;99.90;;;;;;5084608;28;20527;-65
2022/01/28 13:15:06;;;;;;;0.00;0.00;;;7.50;99.90;;;;;;5085239;28;20071;-63
2022/01/28 13:17:32;;;;;;;0.00;0.00;;;7.40;99.90;;;;;;5082120;28;20546;-64
2022/01/28 13:20:00;;;;;;;0.00;0.00;;;7.30;99.90;;;;;;5085439;28;20118;-64
2022/01/28 13:22:27;;;;;;;0.00;0.00;;;7.70;99.90;;;;;;5085503;28;20043;-64
2022/01/28 13:24:54;;;;;;;0.00;0.00;;;7.10;99.90;;;;;;5085166;28;20043;-63
2022/01/28 13:27:21;;;;;;;0.00;0.00;;;7.20;99.90;;;;;;5082224;28;20035;-64
2022/01/28 13:29:52;;;;;;;0.00;0.00;;;7.40;99.90;;;;;;5074011;28;20481;-63
2022/01/28 13:32:27;;;;;;;0.00;0.00;;;7.50;99.90;;;;;;5064896;28;20092;-64
2022/01/28 13:34:55;;;;;;;0.00;0.00;;;7.50;99.90;;;;;;5064150;28;20508;-64
2022/01/28 13:37:37;;;;;;;0.00;0.00;;;7.70;99.90;;;;;;5065393;28;20132;-63
2022/01/28 13:40:08;;;;;;;0.00;0.00;;;7.60;99.90;;;;;;5061478;28;20120;-63
2022/01/28 13:42:34;;;;;;;0.00;0.00;;;7.40;99.90;;;;;;5072965;28;20504;-63
2022/01/28 13:45:05;;;;;;;0.00;0.00;;;7.20;99.90;;;;;;5084256;28;20078;-65
2022/01/28 13:47:53;;;;;;;0.00;0.00;;;6.90;99.90;;;;;;5083584;28;20047;-66
2022/01/28 13:50:28;;;;;;;0.00;0.00;;;6.70;99.90;;;;;;5055951;28;20193;-65
2022/01/28 13:56:12;;;;;;;0.00;0.00;;;6.60;99.90;;;;;;5083755;28;20086;-65
2022/01/28 13:59:17;;;;;;;0.00;0.00;;;6.80;99.90;;;;;;5062762;28;20056;-65
2022/01/28 14:01:48;;;;;;;0.00;0.00;;;6.50;99.90;;;;;;5065797;28;20446;-65
2022/01/28 14:04:22;;;;;;;0.00;0.00;;;6.50;99.90;;;;;;5084217;28;20051;-65
2022/01/28 14:06:48;;;;;;;0.00;0.00;;;6.50;99.90;;;;;;5072366;28;20134;-65
2022/01/28 14:09:18;;;;;;;0.00;0.00;;;6.50;99.90;;;;;;5070106;28;20702;-65
2022/01/28 14:11:52;;;;;;;0.00;0.00;;;6.50;99.90;;;;;;5067874;28;20051;-65
2022/01/28 14:14:23;;;;;;;0.00;0.00;;;6.50;99.90;;;;;;5070805;28;20098;-66
2022/01/28 14:17:01;;;;;;;0.00;0.00;;;6.50;99.90;;;;;;5071423;28;20110;-65
2022/01/28 14:19:29;;;;;;;0.00;0.00;;;6.50;99.90;;;;;;5068277;28;20059;-66
2022/01/28 14:21:56;;;;;;;0.00;0.00;;;6.40;99.90;;;;;;5069952;28;20044;-66
2022/01/28 14:24:26;;;;;;;0.00;0.00;;;6.60;99.90;;;;;;5070054;28;20041;-65
2022/01/28 14:27:11;;;;;;;0.00;0.00;;;6.50;99.90;;;;;;5067819;28;20048;-65
2022/01/28 14:32:10;;;;;;;0.00;0.00;;;6.70;99.90;;;;;;5069254;28;20044;-65
2022/01/28 14:34:37;;;;;;;0.00;0.00;;;6.50;99.90;;;;;;5069858;28;20503;-65
2022/01/28 14:37:04;;;;;;;0.00;0.00;;;6.50;99.90;;;;;;5068206;28;20093;-66
2022/01/28 14:39:32;;;;;;;0.00;0.00;;;6.00;99.90;;;;;;5075522;28;20089;-69
2022/01/28 14:42:02;;;;;;;0.00;0.00;;;7.00;99.90;;;;;;5067825;28;20391;-67
2022/01/28 14:44:37;;;;;;;0.00;0.00;;;6.80;99.90;;;;;;5070081;28;20101;-67
2022/01/28 14:47:04;;;;;;;0.00;0.00;;;6.80;99.90;;;;;;5067087;28;20044;-67
2022/01/28 14:49:30;;;;;;;0.30;0.30;;;6.80;99.90;;;;;;5069650;28;20048;-69
2022/01/28 14:52:00;;;;;;;0.00;0.00;;;6.70;99.90;;;;;;5070044;28;20491;-68